sensor_id;sensor_type;location;lat;lon;timestamp;temperature;humidity
19803;DHT22;66074;50.764;6.090;2023-02-07T00:00:34;3.80;99.90
19803;DHT22;66074;50.764;6.090;2023-02-07T00:02:59;3.70;99.90
19803;DHT22;66074;50.764;6.090;2023-02-07T00:05:27;3.70;99.90
19803;DHT22;66074;50.764;6.090;2023-02-07T00:07:52;3.80;99.90
19803;DHT22;66074;50.764;6.090;2023-02-07T00:10:18;3.80;99.90
19803;DHT22;66074;50.764;6.090;2023-02-07T00:12:43;3.80;99.90
19803;DHT22;66074;50.764;6.090;2023-02-07T00:15:09;3.70;99.90
19803;DHT22;66074;50.764;6.090;2023-02-07T00:17:35;3.80;99.90
19803;DHT22;66074;50.764;6.090;2023-02-07T00:20:00;3.70;99.90
19803;DHT22;66074;50.764;6.090;2023-02-07T00:22:26;3.80;99.90
19803;DHT22;66074;50.764;6.090;2023-02-07T00:24:52;3.60;99.90
19803;DHT22;66074;50.764;6.090;2023-02-07T00:27:18;3.60;99.90
19803;DHT22;66074;50.764;6.090;2023-02-07T00:29:43;3.50;99.90
19803;DHT22;66074;50.764;6.090;2023-02-07T00:32:09;3.50;99.90
19803;DHT22;66074;50.764;6.090;2023-02-07T00:34:34;3.50;99.90
19803;DHT22;66074;50.764;6.090;2023-02-07T00:37:02;3.50;99.90
19803;DHT22;66074;50.764;6.090;2023-02-07T00:39:27;3.50;99.90
19803;DHT22;66074;50.764;6.090;2023-02-07T00:41:53;3.50;99.90
19803;DHT22;66074;50.764;6.090;2023-02-07T00:44:19;3.60;99.90
19803;DHT22;66074;50.764;6.090;2023-02-07T00:46:44;3.50;99.90
19803;DHT22;66074;50.764;6.090;2023-02-07T00:49:10;3.50;99.90
19803;DHT22;66074;50.764;6.090;2023-02-07T00:51:36;3.50;99.90
19803;DHT22;66074;50.764;6.090;2023-02-07T00:54:01;3.40;99.90
19803;DHT22;66074;50.764;6.090;2023-02-07T00:56:28;3.40;99.90
19803;DHT22;66074;50.764;6.090;2023-02-07T00:58:54;3.20;99.90
19803;DHT22;66074;50.764;6.090;2023-02-07T01:01:20;3.30;99.90
19803;DHT22;66074;50.764;6.090;2023-02-07T01:03:46;3.20;99.90
19803;DHT22;66074;50.764;6.090;2023-02-07T01:06:12;3.00;99.90
19803;DHT22;66074;50.764;6.090;2023-02-07T01:08:38;3.00;99.90
19803;DHT22;66074;50.764;6.090;2023-02-07T01:11:07;3.10;99.90
19803;DHT22;66074;50.764;6.090;2023-02-07T01:13:34;3.10;99.90
19803;DHT22;66074;50.764;6.090;2023-02-07T01:16:00;3.00;99.90
19803;DHT22;66074;50.764;6.090;2023-02-07T01:18:25;3.00;99.90
19803;DHT22;66074;50.764;6.090;2023-02-07T01:20:51;3.10;99.90
19803;DHT22;66074;50.764;6.090;2023-02-07T01:23:17;3.00;99.90
19803;DHT22;66074;50.764;6.090;2023-02-07T01:25:44;3.00;99.90
19803;DHT22;66074;50.764;6.090;2023-02-07T01:28:11;2.90;99.90
19803;DHT22;66074;50.764;6.090;2023-02-07T01:30:41;2.90;99.90
19803;DHT22;66074;50.764;6.090;2023-02-07T01:33:07;2.90;99.90
19803;DHT22;66074;50.764;6.090;2023-02-07T01:35:33;2.90;99.90
19803;DHT22;66074;50.764;6.090;2023-02-07T01:37:59;2.90;99.90
19803;DHT22;66074;50.764;6.090;2023-02-07T01:40:27;2.90;99.90
19803;DHT22;66074;50.764;6.090;2023-02-07T01:42:53;2.90;99.90
19803;DHT22;66074;50.764;6.090;2023-02-07T01:45:38;2.90;99.90
19803;DHT22;66074;50.764;6.090;2023-02-07T01:48:09;2.80;99.90
19803;DHT22;66074;50.764;6.090;2023-02-07T01:50:38;2.80;99.80
19803;DHT22;66074;50.764;6.090;2023-02-07T01:53:06;2.80;99.90
19803;DHT22;66074;50.764;6.090;2023-02-07T01:55:34;2.80;99.80
19803;DHT22;66074;50.764;6.090;2023-02-07T01:58:02;2.80;99.80
19803;DHT22;66074;50.764;6.090;2023-02-07T02:00:29;2.80;99.80
19803;DHT22;66074;50.764;6.090;2023-02-07T02:02:55;2.80;99.80
19803;DHT22;66074;50.764;6.090;2023-02-07T02:05:21;2.90;99.90
19803;DHT22;66074;50.764;6.090;2023-02-07T02:07:47;2.80;99.80
19803;DHT22;66074;50.764;6.090;2023-02-07T02:10:17;2.80;99.90
19803;DHT22;66074;50.764;6.090;2023-02-07T02:37:56;2.70;99.80
19803;DHT22;66074;50.764;6.090;2023-02-07T02:40:38;2.70;99.80
19803;DHT22;66074;50.764;6.090;2023-02-07T02:46:45;2.70;99.60
19803;DHT22;66074;50.764;6.090;2023-02-07T02:49:08;2.60;99.60
19803;DHT22;66074;50.764;6.090;2023-02-07T02:51:34;2.60;99.60
19803;DHT22;66074;50.764;6.090;2023-02-07T02:54:00;2.60;99.70
19803;DHT22;66074;50.764;6.090;2023-02-07T02:56:43;2.60;99.70
19803;DHT22;66074;50.764;6.090;2023-02-07T02:59:44;2.60;99.60
19803;DHT22;66074;50.764;6.090;2023-02-07T03:02:20;2.60;99.70
19803;DHT22;66074;50.764;6.090;2023-02-07T03:04:54;2.50;99.70
19803;DHT22;66074;50.764;6.090;2023-02-07T03:13:11;2.50;99.70
19803;DHT22;66074;50.764;6.090;2023-02-07T03:21:36;2.50;99.60
19803;DHT22;66074;50.764;6.090;2023-02-07T03:24:08;2.50;99.60
19803;DHT22;66074;50.764;6.090;2023-02-07T03:26:35;2.50;99.50
19803;DHT22;66074;50.764;6.090;2023-02-07T03:29:04;2.40;99.50
19803;DHT22;66074;50.764;6.090;2023-02-07T03:31:30;2.30;99.60
19803;DHT22;66074;50.764;6.090;2023-02-07T03:34:22;2.30;99.60
19803;DHT22;66074;50.764;6.090;2023-02-07T03:37:03;2.30;99.60
19803;DHT22;66074;50.764;6.090;2023-02-07T03:39:31;2.40;99.70
19803;DHT22;66074;50.764;6.090;2023-02-07T03:42:01;2.40;99.60
19803;DHT22;66074;50.764;6.090;2023-02-07T03:44:30;2.40;99.60
19803;DHT22;66074;50.764;6.090;2023-02-07T03:46:57;2.40;99.60
19803;DHT22;66074;50.764;6.090;2023-02-07T03:49:23;2.40;99.50
19803;DHT22;66074;50.764;6.090;2023-02-07T03:51:49;2.40;99.50
19803;DHT22;66074;50.764;6.090;2023-02-07T03:54:16;2.30;99.40
19803;DHT22;66074;50.764;6.090;2023-02-07T03:56:42;2.30;99.40
19803;DHT22;66074;50.764;6.090;2023-02-07T03:59:11;2.40;99.40
19803;DHT22;66074;50.764;6.090;2023-02-07T04:01:37;2.40;99.40
19803;DHT22;66074;50.764;6.090;2023-02-07T04:04:09;2.40;99.30
19803;DHT22;66074;50.764;6.090;2023-02-07T04:06:35;2.40;99.10
19803;DHT22;66074;50.764;6.090;2023-02-07T04:09:02;2.30;99.00
19803;DHT22;66074;50.764;6.090;2023-02-07T04:11:27;2.20;98.90
19803;DHT22;66074;50.764;6.090;2023-02-07T04:13:53;2.20;99.00
19803;DHT22;66074;50.764;6.090;2023-02-07T04:16:19;2.20;99.00
19803;DHT22;66074;50.764;6.090;2023-02-07T04:18:45;2.10;98.80
19803;DHT22;66074;50.764;6.090;2023-02-07T04:21:11;2.10;98.80
19803;DHT22;66074;50.764;6.090;2023-02-07T04:23:36;2.00;98.80
19803;DHT22;66074;50.764;6.090;2023-02-07T04:26:02;2.00;98.90
19803;DHT22;66074;50.764;6.090;2023-02-07T04:28:28;2.00;98.90
19803;DHT22;66074;50.764;6.090;2023-02-07T04:30:54;2.00;98.90
19803;DHT22;66074;50.764;6.090;2023-02-07T04:33:21;2.00;98.90
19803;DHT22;66074;50.764;6.090;2023-02-07T04:35:56;1.90;98.80
19803;DHT22;66074;50.764;6.090;2023-02-07T04:38:23;1.90;98.90
19803;DHT22;66074;50.764;6.090;2023-02-07T04:40:49;1.90;98.90
19803;DHT22;66074;50.764;6.090;2023-02-07T04:43:15;1.90;98.90
19803;DHT22;66074;50.764;6.090;2023-02-07T04:45:40;1.90;98.90
19803;DHT22;66074;50.764;6.090;2023-02-07T04:48:06;1.90;98.90
19803;DHT22;66074;50.764;6.090;2023-02-07T04:50:31;1.90;98.90
19803;DHT22;66074;50.764;6.090;2023-02-07T04:52:57;1.90;98.90
19803;DHT22;66074;50.764;6.090;2023-02-07T04:55:23;1.90;98.90
19803;DHT22;66074;50.764;6.090;2023-02-07T04:57:48;1.90;98.90
19803;DHT22;66074;50.764;6.090;2023-02-07T05:00:14;1.90;98.80
19803;DHT22;66074;50.764;6.090;2023-02-07T05:02:40;1.80;98.90
19803;DHT22;66074;50.764;6.090;2023-02-07T05:05:06;1.90;98.90
19803;DHT22;66074;50.764;6.090;2023-02-07T05:07:32;1.90;98.80
19803;DHT22;66074;50.764;6.090;2023-02-07T05:09:57;1.80;98.80
19803;DHT22;66074;50.764;6.090;2023-02-07T05:12:23;1.90;98.80
19803;DHT22;66074;50.764;6.090;2023-02-07T05:14:49;1.90;98.70
19803;DHT22;66074;50.764;6.090;2023-02-07T05:17:14;1.90;98.70
19803;DHT22;66074;50.764;6.090;2023-02-07T05:19:40;1.90;98.70
19803;DHT22;66074;50.764;6.090;2023-02-07T05:22:06;1.90;98.60
19803;DHT22;66074;50.764;6.090;2023-02-07T05:24:32;1.90;98.60
19803;DHT22;66074;50.764;6.090;2023-02-07T05:26:57;1.90;98.60
19803;DHT22;66074;50.764;6.090;2023-02-07T05:29:23;1.80;98.50
19803;DHT22;66074;50.764;6.090;2023-02-07T05:31:49;1.80;98.50
19803;DHT22;66074;50.764;6.090;2023-02-07T05:34:33;1.80;98.50
19803;DHT22;66074;50.764;6.090;2023-02-07T05:36:59;1.80;98.50
19803;DHT22;66074;50.764;6.090;2023-02-07T05:39:24;1.80;98.60
19803;DHT22;66074;50.764;6.090;2023-02-07T05:41:50;1.80;98.60
19803;DHT22;66074;50.764;6.090;2023-02-07T05:44:16;1.80;98.50
19803;DHT22;66074;50.764;6.090;2023-02-07T05:46:41;1.80;98.60
19803;DHT22;66074;50.764;6.090;2023-02-07T05:49:07;1.80;98.60
19803;DHT22;66074;50.764;6.090;2023-02-07T05:51:33;1.90;98.60
19803;DHT22;66074;50.764;6.090;2023-02-07T05:53:58;1.90;98.60
19803;DHT22;66074;50.764;6.090;2023-02-07T05:56:24;2.00;98.50
19803;DHT22;66074;50.764;6.090;2023-02-07T05:58:50;1.90;98.50
19803;DHT22;66074;50.764;6.090;2023-02-07T06:01:15;2.00;98.50
19803;DHT22;66074;50.764;6.090;2023-02-07T06:03:41;1.80;98.40
19803;DHT22;66074;50.764;6.090;2023-02-07T06:06:06;1.80;98.40
19803;DHT22;66074;50.764;6.090;2023-02-07T06:08:32;1.80;98.40
19803;DHT22;66074;50.764;6.090;2023-02-07T06:10:58;1.80;98.30
19803;DHT22;66074;50.764;6.090;2023-02-07T06:13:23;1.80;98.30
19803;DHT22;66074;50.764;6.090;2023-02-07T06:15:49;1.80;98.40
19803;DHT22;66074;50.764;6.090;2023-02-07T06:18:14;1.80;98.40
19803;DHT22;66074;50.764;6.090;2023-02-07T06:20:40;1.80;98.40
19803;DHT22;66074;50.764;6.090;2023-02-07T06:23:06;1.70;98.40
19803;DHT22;66074;50.764;6.090;2023-02-07T06:25:31;1.80;98.40
19803;DHT22;66074;50.764;6.090;2023-02-07T06:27:57;1.80;98.40
19803;DHT22;66074;50.764;6.090;2023-02-07T06:30:23;1.80;98.30
19803;DHT22;66074;50.764;6.090;2023-02-07T06:32:48;1.70;98.30
19803;DHT22;66074;50.764;6.090;2023-02-07T06:35:14;1.70;98.30
19803;DHT22;66074;50.764;6.090;2023-02-07T06:37:40;1.70;98.30
19803;DHT22;66074;50.764;6.090;2023-02-07T06:40:05;1.70;98.30
19803;DHT22;66074;50.764;6.090;2023-02-07T06:42:31;1.70;98.30
19803;DHT22;66074;50.764;6.090;2023-02-07T06:44:57;1.70;98.20
19803;DHT22;66074;50.764;6.090;2023-02-07T06:47:23;1.80;98.20
19803;DHT22;66074;50.764;6.090;2023-02-07T06:49:48;1.80;98.20
19803;DHT22;66074;50.764;6.090;2023-02-07T06:52:14;1.70;98.00
19803;DHT22;66074;50.764;6.090;2023-02-07T06:54:40;1.70;98.10
19803;DHT22;66074;50.764;6.090;2023-02-07T06:57:06;1.70;98.10
19803;DHT22;66074;50.764;6.090;2023-02-07T06:59:31;1.70;98.10
19803;DHT22;66074;50.764;6.090;2023-02-07T07:01:57;1.70;98.00
19803;DHT22;66074;50.764;6.090;2023-02-07T07:04:25;1.70;98.00
19803;DHT22;66074;50.764;6.090;2023-02-07T07:06:50;1.60;97.90
19803;DHT22;66074;50.764;6.090;2023-02-07T07:09:16;1.50;97.90
19803;DHT22;66074;50.764;6.090;2023-02-07T07:11:42;1.50;98.40
19803;DHT22;66074;50.764;6.090;2023-02-07T07:14:12;1.50;98.20
19803;DHT22;66074;50.764;6.090;2023-02-07T07:16:38;1.60;98.10
19803;DHT22;66074;50.764;6.090;2023-02-07T07:19:05;1.50;98.10
19803;DHT22;66074;50.764;6.090;2023-02-07T07:21:31;1.60;98.20
19803;DHT22;66074;50.764;6.090;2023-02-07T07:23:57;1.60;98.20
19803;DHT22;66074;50.764;6.090;2023-02-07T07:26:22;1.60;98.10
19803;DHT22;66074;50.764;6.090;2023-02-07T07:28:48;1.60;98.10
19803;DHT22;66074;50.764;6.090;2023-02-07T07:31:14;1.60;98.10
19803;DHT22;66074;50.764;6.090;2023-02-07T07:33:40;1.60;98.10
19803;DHT22;66074;50.764;6.090;2023-02-07T07:36:06;1.60;98.10
19803;DHT22;66074;50.764;6.090;2023-02-07T07:38:31;1.60;98.30
19803;DHT22;66074;50.764;6.090;2023-02-07T07:40:57;1.70;98.20
19803;DHT22;66074;50.764;6.090;2023-02-07T07:43:24;1.70;98.10
19803;DHT22;66074;50.764;6.090;2023-02-07T07:45:54;1.70;98.10
19803;DHT22;66074;50.764;6.090;2023-02-07T07:48:21;1.70;98.10
19803;DHT22;66074;50.764;6.090;2023-02-07T07:50:48;1.80;98.20
19803;DHT22;66074;50.764;6.090;2023-02-07T07:53:13;1.90;98.20
19803;DHT22;66074;50.764;6.090;2023-02-07T07:55:40;1.90;98.20
19803;DHT22;66074;50.764;6.090;2023-02-07T07:58:05;1.90;98.10
19803;DHT22;66074;50.764;6.090;2023-02-07T08:00:31;1.90;98.30
19803;DHT22;66074;50.764;6.090;2023-02-07T08:02:57;1.90;98.00
19803;DHT22;66074;50.764;6.090;2023-02-07T08:05:22;2.00;98.00
19803;DHT22;66074;50.764;6.090;2023-02-07T08:07:48;2.00;98.00
19803;DHT22;66074;50.764;6.090;2023-02-07T08:10:15;2.00;98.00
19803;DHT22;66074;50.764;6.090;2023-02-07T08:12:41;2.10;97.90
19803;DHT22;66074;50.764;6.090;2023-02-07T08:15:07;2.10;97.90
19803;DHT22;66074;50.764;6.090;2023-02-07T08:17:34;2.10;97.90
19803;DHT22;66074;50.764;6.090;2023-02-07T08:20:00;2.10;97.90
19803;DHT22;66074;50.764;6.090;2023-02-07T08:22:26;2.10;97.90
19803;DHT22;66074;50.764;6.090;2023-02-07T08:24:52;2.20;98.00
19803;DHT22;66074;50.764;6.090;2023-02-07T08:27:17;2.20;97.90
19803;DHT22;66074;50.764;6.090;2023-02-07T08:29:43;2.40;97.90
19803;DHT22;66074;50.764;6.090;2023-02-07T08:32:10;2.30;97.90
19803;DHT22;66074;50.764;6.090;2023-02-07T08:34:36;2.30;97.70
19803;DHT22;66074;50.764;6.090;2023-02-07T08:37:06;2.30;97.80
19803;DHT22;66074;50.764;6.090;2023-02-07T08:39:34;2.30;97.60
19803;DHT22;66074;50.764;6.090;2023-02-07T08:42:00;2.40;97.70
19803;DHT22;66074;50.764;6.090;2023-02-07T08:44:26;2.40;97.70
19803;DHT22;66074;50.764;6.090;2023-02-07T08:46:52;2.40;97.60
19803;DHT22;66074;50.764;6.090;2023-02-07T08:49:17;2.50;97.60
19803;DHT22;66074;50.764;6.090;2023-02-07T08:51:43;2.50;97.60
19803;DHT22;66074;50.764;6.090;2023-02-07T08:54:09;2.60;97.60
19803;DHT22;66074;50.764;6.090;2023-02-07T08:56:35;2.60;97.50
19803;DHT22;66074;50.764;6.090;2023-02-07T08:59:00;2.60;97.40
19803;DHT22;66074;50.764;6.090;2023-02-07T09:01:26;2.70;97.40
19803;DHT22;66074;50.764;6.090;2023-02-07T09:03:55;2.70;97.30
19803;DHT22;66074;50.764;6.090;2023-02-07T09:06:24;2.70;97.20
19803;DHT22;66074;50.764;6.090;2023-02-07T09:08:51;2.70;97.10
19803;DHT22;66074;50.764;6.090;2023-02-07T09:11:17;2.70;97.00
19803;DHT22;66074;50.764;6.090;2023-02-07T09:13:43;2.70;97.10
19803;DHT22;66074;50.764;6.090;2023-02-07T09:16:11;2.70;97.10
19803;DHT22;66074;50.764;6.090;2023-02-07T09:18:37;2.80;97.10
19803;DHT22;66074;50.764;6.090;2023-02-07T09:21:03;2.90;97.10
19803;DHT22;66074;50.764;6.090;2023-02-07T09:23:30;3.00;97.10
19803;DHT22;66074;50.764;6.090;2023-02-07T09:26:00;3.10;97.20
19803;DHT22;66074;50.764;6.090;2023-02-07T09:28:25;3.20;97.10
19803;DHT22;66074;50.764;6.090;2023-02-07T09:30:51;3.40;97.10
19803;DHT22;66074;50.764;6.090;2023-02-07T09:33:17;3.40;97.10
19803;DHT22;66074;50.764;6.090;2023-02-07T09:35:44;3.50;97.10
19803;DHT22;66074;50.764;6.090;2023-02-07T09:38:16;3.60;97.00
19803;DHT22;66074;50.764;6.090;2023-02-07T09:40:43;3.70;96.80
19803;DHT22;66074;50.764;6.090;2023-02-07T09:45:44;3.90;96.60
19803;DHT22;66074;50.764;6.090;2023-02-07T09:48:23;4.00;96.10
19803;DHT22;66074;50.764;6.090;2023-02-07T09:50:52;4.00;95.80
19803;DHT22;66074;50.764;6.090;2023-02-07T09:53:24;4.00;96.20
19803;DHT22;66074;50.764;6.090;2023-02-07T09:58:22;4.10;96.10
19803;DHT22;66074;50.764;6.090;2023-02-07T10:00:59;4.10;96.00
19803;DHT22;66074;50.764;6.090;2023-02-07T10:03:26;4.20;95.70
19803;DHT22;66074;50.764;6.090;2023-02-07T10:06:03;4.30;95.60
19803;DHT22;66074;50.764;6.090;2023-02-07T10:08:29;4.50;95.10
19803;DHT22;66074;50.764;6.090;2023-02-07T10:14:03;4.50;94.40
19803;DHT22;66074;50.764;6.090;2023-02-07T10:16:53;4.50;93.70
19803;DHT22;66074;50.764;6.090;2023-02-07T10:22:30;4.60;94.70
19803;DHT22;66074;50.764;6.090;2023-02-07T10:30:29;4.80;94.90
19803;DHT22;66074;50.764;6.090;2023-02-07T10:33:01;4.80;94.60
19803;DHT22;66074;50.764;6.090;2023-02-07T10:35:34;4.80;94.10
19803;DHT22;66074;50.764;6.090;2023-02-07T10:41:26;4.90;94.30
19803;DHT22;66074;50.764;6.090;2023-02-07T10:43:43;4.90;94.30
19803;DHT22;66074;50.764;6.090;2023-02-07T10:46:12;4.90;93.90
19803;DHT22;66074;50.764;6.090;2023-02-07T10:48:38;5.00;94.30
19803;DHT22;66074;50.764;6.090;2023-02-07T10:53:46;5.20;93.10
19803;DHT22;66074;50.764;6.090;2023-02-07T10:56:23;5.30;93.80
19803;DHT22;66074;50.764;6.090;2023-02-07T10:58:50;5.40;93.30
19803;DHT22;66074;50.764;6.090;2023-02-07T11:01:22;5.40;93.90
19803;DHT22;66074;50.764;6.090;2023-02-07T11:03:49;5.50;93.40
19803;DHT22;66074;50.764;6.090;2023-02-07T11:06:32;5.50;93.80
19803;DHT22;66074;50.764;6.090;2023-02-07T11:09:10;5.50;93.20
19803;DHT22;66074;50.764;6.090;2023-02-07T11:11:37;5.60;92.70
19803;DHT22;66074;50.764;6.090;2023-02-07T11:14:06;5.60;93.60
19803;DHT22;66074;50.764;6.090;2023-02-07T11:16:32;5.60;93.60
19803;DHT22;66074;50.764;6.090;2023-02-07T11:19:00;5.70;93.60
19803;DHT22;66074;50.764;6.090;2023-02-07T11:26:30;5.70;92.90
19803;DHT22;66074;50.764;6.090;2023-02-07T11:29:26;5.80;92.80
19803;DHT22;66074;50.764;6.090;2023-02-07T11:31:53;5.80;90.80
19803;DHT22;66074;50.764;6.090;2023-02-07T11:34:29;5.80;92.90
19803;DHT22;66074;50.764;6.090;2023-02-07T11:37:30;5.90;92.30
19803;DHT22;66074;50.764;6.090;2023-02-07T11:40:23;5.90;91.70
19803;DHT22;66074;50.764;6.090;2023-02-07T11:42:57;5.90;91.10
19803;DHT22;66074;50.764;6.090;2023-02-07T11:45:23;5.90;91.60
19803;DHT22;66074;50.764;6.090;2023-02-07T11:47:53;6.00;92.80
19803;DHT22;66074;50.764;6.090;2023-02-07T11:50:26;6.00;92.70
19803;DHT22;66074;50.764;6.090;2023-02-07T11:52:55;5.90;92.50
19803;DHT22;66074;50.764;6.090;2023-02-07T11:55:25;5.90;92.70
19803;DHT22;66074;50.764;6.090;2023-02-07T11:57:54;5.90;92.70
19803;DHT22;66074;50.764;6.090;2023-02-07T12:00:24;5.90;92.90
19803;DHT22;66074;50.764;6.090;2023-02-07T12:05:27;5.80;92.40
19803;DHT22;66074;50.764;6.090;2023-02-07T12:08:00;5.80;92.80
19803;DHT22;66074;50.764;6.090;2023-02-07T12:10:34;5.80;92.50
19803;DHT22;66074;50.764;6.090;2023-02-07T12:13:43;5.80;92.90
19803;DHT22;66074;50.764;6.090;2023-02-07T12:16:25;5.80;92.50
19803;DHT22;66074;50.764;6.090;2023-02-07T12:19:14;5.90;92.70
19803;DHT22;66074;50.764;6.090;2023-02-07T12:22:09;5.90;92.80
19803;DHT22;66074;50.764;6.090;2023-02-07T12:24:44;5.80;92.40
19803;DHT22;66074;50.764;6.090;2023-02-07T12:27:15;5.90;93.10
19803;DHT22;66074;50.764;6.090;2023-02-07T12:32:43;5.90;92.80
19803;DHT22;66074;50.764;6.090;2023-02-07T12:35:47;5.90;92.80
19803;DHT22;66074;50.764;6.090;2023-02-07T12:38:23;5.90;92.60
19803;DHT22;66074;50.764;6.090;2023-02-07T12:43:33;5.90;92.90
19803;DHT22;66074;50.764;6.090;2023-02-07T12:57:30;5.90;92.60
19803;DHT22;66074;50.764;6.090;2023-02-07T13:00:22;5.90;93.20
19803;DHT22;66074;50.764;6.090;2023-02-07T13:03:12;6.00;92.80
19803;DHT22;66074;50.764;6.090;2023-02-07T13:05:57;6.00;92.50
19803;DHT22;66074;50.764;6.090;2023-02-07T13:09:32;6.00;92.40
19803;DHT22;66074;50.764;6.090;2023-02-07T13:15:06;6.10;92.40
19803;DHT22;66074;50.764;6.090;2023-02-07T13:18:02;6.20;92.00
19803;DHT22;66074;50.764;6.090;2023-02-07T13:21:00;6.20;92.50
19803;DHT22;66074;50.764;6.090;2023-02-07T13:23:32;6.30;92.10
19803;DHT22;66074;50.764;6.090;2023-02-07T13:26:23;6.40;92.70
19803;DHT22;66074;50.764;6.090;2023-02-07T13:28:54;6.40;92.20
19803;DHT22;66074;50.764;6.090;2023-02-07T13:34:29;6.50;91.40
19803;DHT22;66074;50.764;6.090;2023-02-07T13:36:56;6.50;91.00
19803;DHT22;66074;50.764;6.090;2023-02-07T13:45:10;6.70;91.70
19803;DHT22;66074;50.764;6.090;2023-02-07T13:53:37;7.00;90.90
19803;DHT22;66074;50.764;6.090;2023-02-07T13:56:12;7.20;92.00
19803;DHT22;66074;50.764;6.090;2023-02-07T13:58:58;7.70;92.60
19803;DHT22;66074;50.764;6.090;2023-02-07T14:01:56;8.80;92.90
19803;DHT22;66074;50.764;6.090;2023-02-07T14:04:22;10.10;90.30
19803;DHT22;66074;50.764;6.090;2023-02-07T14:07:00;11.20;89.20
19803;DHT22;66074;50.764;6.090;2023-02-07T14:09:43;12.30;84.20
19803;DHT22;66074;50.764;6.090;2023-02-07T14:14:47;11.10;82.90
19803;DHT22;66074;50.764;6.090;2023-02-07T14:20:17;9.80;86.60
19803;DHT22;66074;50.764;6.090;2023-02-07T14:33:19;14.50;79.10
19803;DHT22;66074;50.764;6.090;2023-02-07T14:38:58;12.60;79.00
19803;DHT22;66074;50.764;6.090;2023-02-07T14:41:31;11.10;82.10
19803;DHT22;66074;50.764;6.090;2023-02-07T14:44:00;9.90;83.10
19803;DHT22;66074;50.764;6.090;2023-02-07T14:46:35;9.10;83.50
19803;DHT22;66074;50.764;6.090;2023-02-07T14:52:01;8.10;84.80
19803;DHT22;66074;50.764;6.090;2023-02-07T14:54:40;7.80;85.10
19803;DHT22;66074;50.764;6.090;2023-02-07T15:05:28;7.30;84.10
19803;DHT22;66074;50.764;6.090;2023-02-07T15:08:07;7.20;84.60
19803;DHT22;66074;50.764;6.090;2023-02-07T15:13:58;6.80;85.30
19803;DHT22;66074;50.764;6.090;2023-02-07T15:16:32;6.80;85.60
19803;DHT22;66074;50.764;6.090;2023-02-07T15:19:11;6.80;86.40
19803;DHT22;66074;50.764;6.090;2023-02-07T15:21:43;6.80;85.80
19803;DHT22;66074;50.764;6.090;2023-02-07T15:24:39;6.80;87.20
19803;DHT22;66074;50.764;6.090;2023-02-07T15:27:16;6.80;86.70
19803;DHT22;66074;50.764;6.090;2023-02-07T15:29:56;6.80;86.60
19803;DHT22;66074;50.764;6.090;2023-02-07T15:32:25;6.80;85.10
19803;DHT22;66074;50.764;6.090;2023-02-07T15:34:54;6.80;86.20
19803;DHT22;66074;50.764;6.090;2023-02-07T15:37:22;6.70;86.70
19803;DHT22;66074;50.764;6.090;2023-02-07T15:39:52;6.70;86.20
19803;DHT22;66074;50.764;6.090;2023-02-07T15:42:19;6.70;86.70
19803;DHT22;66074;50.764;6.090;2023-02-07T15:44:50;6.70;86.60
19803;DHT22;66074;50.764;6.090;2023-02-07T15:50:19;6.60;84.90
19803;DHT22;66074;50.764;6.090;2023-02-07T15:52:49;6.60;84.80
19803;DHT22;66074;50.764;6.090;2023-02-07T15:55:32;6.50;85.40
19803;DHT22;66074;50.764;6.090;2023-02-07T15:57:59;6.50;84.90
19803;DHT22;66074;50.764;6.090;2023-02-07T16:00:28;6.40;85.90
19803;DHT22;66074;50.764;6.090;2023-02-07T16:02:58;6.40;85.40
19803;DHT22;66074;50.764;6.090;2023-02-07T16:05:37;6.30;84.90
19803;DHT22;66074;50.764;6.090;2023-02-07T16:08:05;6.20;83.90
19803;DHT22;66074;50.764;6.090;2023-02-07T16:10:36;6.20;84.50
19803;DHT22;66074;50.764;6.090;2023-02-07T16:15:37;6.10;84.20
19803;DHT22;66074;50.764;6.090;2023-02-07T16:18:04;6.00;84.40
19803;DHT22;66074;50.764;6.090;2023-02-07T16:20:33;6.00;84.50
19803;DHT22;66074;50.764;6.090;2023-02-07T16:23:02;5.90;84.60
19803;DHT22;66074;50.764;6.090;2023-02-07T16:25:35;5.90;84.60
19803;DHT22;66074;50.764;6.090;2023-02-07T16:28:03;5.80;84.10
19803;DHT22;66074;50.764;6.090;2023-02-07T16:30:34;5.70;84.20
19803;DHT22;66074;50.764;6.090;2023-02-07T16:33:10;5.70;84.00
19803;DHT22;66074;50.764;6.090;2023-02-07T16:35:36;5.70;83.90
19803;DHT22;66074;50.764;6.090;2023-02-07T16:38:02;5.60;84.00
19803;DHT22;66074;50.764;6.090;2023-02-07T16:40:27;5.50;84.10
19803;DHT22;66074;50.764;6.090;2023-02-07T16:42:54;5.50;84.20
19803;DHT22;66074;50.764;6.090;2023-02-07T16:45:26;5.50;84.50
19803;DHT22;66074;50.764;6.090;2023-02-07T16:47:52;5.40;84.30
19803;DHT22;66074;50.764;6.090;2023-02-07T16:50:21;5.40;84.60
19803;DHT22;66074;50.764;6.090;2023-02-07T16:52:49;5.40;84.60
19803;DHT22;66074;50.764;6.090;2023-02-07T16:55:16;5.40;84.70
19803;DHT22;66074;50.764;6.090;2023-02-07T16:57:44;5.40;84.80
19803;DHT22;66074;50.764;6.090;2023-02-07T17:00:14;5.40;84.60
19803;DHT22;66074;50.764;6.090;2023-02-07T17:02:40;5.30;84.50
19803;DHT22;66074;50.764;6.090;2023-02-07T17:05:07;5.30;84.70
19803;DHT22;66074;50.764;6.090;2023-02-07T17:07:35;5.30;84.70
19803;DHT22;66074;50.764;6.090;2023-02-07T17:10:01;5.20;84.50
19803;DHT22;66074;50.764;6.090;2023-02-07T17:12:26;5.20;84.50
19803;DHT22;66074;50.764;6.090;2023-02-07T17:14:52;5.20;84.70
19803;DHT22;66074;50.764;6.090;2023-02-07T17:17:18;5.20;85.00
19803;DHT22;66074;50.764;6.090;2023-02-07T17:19:44;5.10;84.90
19803;DHT22;66074;50.764;6.090;2023-02-07T17:22:13;5.10;85.00
19803;DHT22;66074;50.764;6.090;2023-02-07T17:24:39;5.30;85.10
19803;DHT22;66074;50.764;6.090;2023-02-07T17:27:05;5.20;85.30
19803;DHT22;66074;50.764;6.090;2023-02-07T17:29:31;5.00;84.80
19803;DHT22;66074;50.764;6.090;2023-02-07T17:31:56;5.00;85.10
19803;DHT22;66074;50.764;6.090;2023-02-07T17:34:22;5.00;85.20
19803;DHT22;66074;50.764;6.090;2023-02-07T17:36:48;5.00;84.90
19803;DHT22;66074;50.764;6.090;2023-02-07T17:39:16;4.90;85.00
19803;DHT22;66074;50.764;6.090;2023-02-07T17:41:41;4.90;85.20
19803;DHT22;66074;50.764;6.090;2023-02-07T17:44:07;4.90;85.90
19803;DHT22;66074;50.764;6.090;2023-02-07T17:46:33;4.80;85.10
19803;DHT22;66074;50.764;6.090;2023-02-07T17:48:59;4.80;85.20
19803;DHT22;66074;50.764;6.090;2023-02-07T17:51:27;4.80;85.20
19803;DHT22;66074;50.764;6.090;2023-02-07T17:53:54;4.80;85.20
19803;DHT22;66074;50.764;6.090;2023-02-07T17:56:26;4.70;85.00
19803;DHT22;66074;50.764;6.090;2023-02-07T17:58:53;4.80;85.80
19803;DHT22;66074;50.764;6.090;2023-02-07T18:01:19;4.70;85.20
19803;DHT22;66074;50.764;6.090;2023-02-07T18:03:49;4.50;85.00
19803;DHT22;66074;50.764;6.090;2023-02-07T18:06:17;4.60;85.10
19803;DHT22;66074;50.764;6.090;2023-02-07T18:08:43;4.60;85.40
19803;DHT22;66074;50.764;6.090;2023-02-07T18:11:10;4.60;85.60
19803;DHT22;66074;50.764;6.090;2023-02-07T18:13:39;4.60;86.00
19803;DHT22;66074;50.764;6.090;2023-02-07T18:16:05;4.60;86.20
19803;DHT22;66074;50.764;6.090;2023-02-07T18:18:32;4.60;86.40
19803;DHT22;66074;50.764;6.090;2023-02-07T18:20:58;4.50;86.10
19803;DHT22;66074;50.764;6.090;2023-02-07T18:23:24;4.50;85.90